Flight Track Log - Related Links

Times and Time Zones

All times are in EDT time to prevent confusion due to time zone crossing. See the XOJ756 flight status page for this flight to view local times or setup timezone preferences in your user account.


Time Position Orientation Groundspeed Altitude Reporting Facility
EDT Latitude Longitude Course Direction KTS MPH feet Rate Location/Type
Fri 12:24:19 PM 37.7500 -122.2833 71° East 216 249 2,500  Level Northern Cal TRACON
Fri 12:25:13 PM 37.7833 -122.3333 310° West 219 252 5,600 2,750 Climbing Northern Cal TRACON
Fri 12:26:19 PM 37.8333 -122.3333 360° North 253 291 8,000 2,143 Climbing Northern Cal TRACON
Fri 12:27:19 PM 37.8500 -122.2500 76° East 271 312 10,100 1,684 Climbing Northern Cal TRACON
Fri 12:28:13 PM 37.8667 -122.1500 78° East 324 373 11,200 1,109 Climbing Northern Cal TRACON
Fri 12:29:00 PM 37.9514 -121.4060 71° East  Level FlightAware Approximate
Fri 12:29:18 PM 37.8942 -122.0239 75° East 351 404 12,300  Level Oakland Center
Fri 12:30:19 PM 37.9189 -121.8917 77° East 378 435 13,900 1,707 Climbing Oakland Center
Fri 12:31:21 PM 37.9419 -121.7547 78° East 393 452 15,800 1,805 Climbing Oakland Center
Fri 12:32:22 PM 37.9675 -121.6167 77° East 401 461 17,600 1,951 Climbing Oakland Center
Fri 12:33:24 PM 37.9981 -121.4467 77° East 408 470 19,800 1,854 Climbing Oakland Center
Fri 12:34:25 PM 38.0222 -121.3042 78° East 412 474 21,400 1,512 Climbing Oakland Center
Fri 12:35:27 PM 38.0478 -121.1583 77° East 418 481 22,900 1,463 Climbing Oakland Center
Fri 12:36:28 PM 38.0750 -121.0075 77° East 431 496 24,400 1,463 Climbing Oakland Center
Fri 12:37:30 PM 38.1097 -120.8550 74° East 445 512 25,900 1,463 Climbing Oakland Center
Fri 12:38:31 PM 38.1481 -120.7014 72° East 454 522 27,400 1,463 Climbing Oakland Center
Fri 12:39:33 PM 38.1856 -120.5419 73° East 466 536 28,900 1,610 Climbing Oakland Center
Fri 12:40:34 PM 38.2294 -120.3467 74° East 476 548 30,700 1,610 Climbing Oakland Center
Fri 12:41:36 PM 38.2564 -120.1781 78° East 486 559 32,200 1,463 Climbing Oakland Center
Fri 12:42:37 PM 38.2864 -120.0081 77° East 495 570 33,700 1,475 Climbing Oakland Center
Fri 12:43:38 PM 38.3144 -119.8353 78° East 499 574 35,200 1,463 Climbing Oakland Center
Fri 12:44:40 PM 38.3442 -119.6606 78° East 505 581 36,700 1,317 Climbing Oakland Center
Fri 12:45:41 PM 38.3733 -119.4833 78° East 509 586 37,900 1,171 Climbing Oakland Center
Fri 12:46:43 PM 38.4047 -119.2936 78° East 515 593 39,100 927 Climbing Oakland Center
Fri 12:47:44 PM 38.4339 -119.1125 78° East 524 603 39,800 639 Climbing Oakland Center
Fri 12:48:45 PM 38.4625 -118.9281 79° East 530 610 40,400 634 Climbing Oakland Center
Fri 12:49:47 PM 38.4917 -118.7464 78° East 528 608 41,100 634 Climbing Oakland Center
Fri 12:50:48 PM 38.5264 -118.5292 78° East 524 603 41,700 488 Climbing Oakland Center
Fri 12:51:50 PM 38.5547 -118.3464 79° East 528 608 42,100 439 Climbing Oakland Center
Fri 12:52:51 PM 38.5836 -118.1628 79° East 529 609 42,600 393 Climbing Oakland Center
Fri 12:53:52 PM 38.6092 -117.9908 79° East 526 605 42,900 195 Climbing Oakland Center
Fri 12:54:54 PM 38.6375 -117.8072 79° East 525 604 43,000 49 Climbing Oakland Center
Fri 12:55:55 PM 38.6639 -117.6233 80° East 523 602 43,000  Level Oakland Center
Fri 12:56:56 PM 38.6917 -117.4364 79° East 528 608 43,000  Level Oakland Center
Fri 12:57:25 PM 38.7075 -117.3244 80° East 530 610 43,000  Level Salt Lake Center
Fri 12:58:27 PM 38.7344 -117.1358 80° East 533 613 43,000  Level Salt Lake Center
Fri 12:58:59 PM 38.7461 -117.0606 79° East 533 613 43,000  Level Oakland Center
Fri 01:00:00 PM 38.7786 -116.8333 80° East 535 616 43,000  Level Oakland Center
Fri 01:00:31 PM 38.7878 -116.7569 81° East 537 618 43,000  Level Salt Lake Center
Fri 01:01:33 PM 38.8136 -116.5686 80° East 535 616 43,000  Level Salt Lake Center
Fri 01:02:03 PM 38.8297 -116.4553 80° East 536 617 43,000  Level Oakland Center
Fri 01:03:04 PM 38.8561 -116.2664 80° East 536 617 43,000  Level Oakland Center
Fri 01:04:06 PM 38.8794 -116.0897 80° East 536 617 43,000  Level Oakland Center
Fri 01:04:39 PM 38.8947 -115.9650 81° East 533 613 43,000  Level Salt Lake Center
Fri 01:05:41 PM 38.9200 -115.7769 80° East 534 615 43,000  Level Salt Lake Center
Fri 01:06:43 PM 38.9478 -115.5889 79° East 535 616 43,000  Level Salt Lake Center
Fri 01:07:45 PM 38.9825 -115.4033 76° East 535 616 43,000  Level Salt Lake Center
Fri 01:08:47 PM 39.0197 -115.1994 77° East 538 619 43,000  Level Salt Lake Center
Fri 01:09:49 PM 39.0533 -115.0122 77° East 538 619 43,000  Level Salt Lake Center
Fri 01:10:52 PM 39.0853 -114.8261 77° East 535 616 43,000  Level Salt Lake Center
Fri 01:11:54 PM 39.1194 -114.6369 77° East 540 621 43,000  Level Salt Lake Center
Fri 01:12:56 PM 39.1517 -114.4503 77° East 538 619 43,000  Level Salt Lake Center
Fri 01:13:58 PM 39.1886 -114.2250 78° East 536 617 43,000  Level Salt Lake Center
Fri 01:14:59 PM 39.2206 -114.0369 78° East 536 617 43,000  Level Salt Lake Center
Fri 01:16:01 PM 39.2522 -113.8483 78° East 538 619 43,000  Level Salt Lake Center
Fri 01:17:03 PM 39.2831 -113.6600 78° East 537 618 43,000  Level Salt Lake Center
Fri 01:18:05 PM 39.3133 -113.4689 78° East 541 623 43,000  Level Salt Lake Center
Fri 01:19:07 PM 39.3439 -113.2794 78° East 539 620 43,000  Level Salt Lake Center
Fri 01:20:09 PM 39.3803 -113.0508 78° East 541 623 43,000  Level Salt Lake Center
Fri 01:21:11 PM 39.4111 -112.8586 78° East 544 626 43,000  Level Salt Lake Center
Fri 01:22:13 PM 39.4406 -112.6669 79° East 543 625 43,000  Level Salt Lake Center
Fri 01:23:15 PM 39.4714 -112.4675 79° East 544 626 43,000  Level Salt Lake Center
Fri 01:24:17 PM 39.5000 -112.2747 79° East 549 632 43,000  Level Salt Lake Center
Fri 01:25:19 PM 39.5294 -112.0819 79° East 550 633 43,000  Level Salt Lake Center
Fri 01:26:22 PM 39.5567 -111.8881 80° East 551 634 43,000  Level Salt Lake Center
Fri 01:27:24 PM 39.5908 -111.6553 79° East 552 635 43,000  Level Salt Lake Center
Fri 01:28:26 PM 39.6183 -111.4608 80° East 551 634 43,000  Level Salt Lake Center
Fri 01:29:28 PM 39.6486 -111.2533 79° East 552 635 43,000  Level Salt Lake Center
Fri 01:30:30 PM 39.6769 -111.0667 79° East 550 633 43,000  Level Salt Lake Center
Fri 01:31:32 PM 39.7050 -110.8486 80° East 550 633 43,000  Level Salt Lake Center
Fri 01:32:34 PM 39.7314 -110.6622 80° East 548 631 43,000  Level Salt Lake Center
Fri 01:33:36 PM 39.7561 -110.4761 80° East 546 628 43,000  Level Salt Lake Center
Fri 01:34:38 PM 39.7839 -110.2597 80° East 544 626 43,000  Level Salt Lake Center
Fri 01:35:40 PM 39.8089 -110.0742 80° East 544 626 43,000  Level Salt Lake Center
Fri 01:36:42 PM 39.8369 -109.8553 80° East 549 632 43,000  Level Salt Lake Center
Fri 01:37:30 PM 39.8556 -109.6983 81° East 545 627 43,000  Level Denver Center
Fri 01:38:32 PM 39.8806 -109.5106 80° East 548 631 43,000  Level Denver Center
Fri 01:39:34 PM 39.9078 -109.2900 81° East 550 633 43,000  Level Denver Center
Fri 01:40:36 PM 39.9308 -109.1011 81° East 548 631 43,000  Level Denver Center
Fri 01:41:38 PM 39.9583 -108.8789 81° East 551 634 43,000  Level Denver Center
Fri 01:42:41 PM 39.9811 -108.6869 81° East 552 635 43,000  Level Denver Center
Fri 01:43:43 PM 40.0025 -108.4944 82° East 554 638 43,000  Level Denver Center
Fri 01:44:45 PM 40.0275 -108.2711 82° East 554 638 43,000  Level Denver Center
Fri 01:45:47 PM 40.0492 -108.0819 81° East 551 634 43,000  Level Denver Center
Fri 01:46:49 PM 40.0828 -107.8594 79° East 556 640 43,000  Level Denver Center
Fri 01:47:51 PM 40.1242 -107.6717 74° East 560 644 43,000  Level Denver Center
Fri 01:48:53 PM 40.1756 -107.4547 73° East 560 644 43,000  Level Denver Center
Fri 01:49:55 PM 40.2189 -107.2672 73° East 561 646 43,000  Level Denver Center
Fri 01:50:57 PM 40.2675 -107.0467 74° East 564 649 43,000  Level Denver Center
Fri 01:51:59 PM 40.3119 -106.8525 73° East 563 648 43,000  Level Denver Center
Fri 01:53:01 PM 40.3564 -106.6542 74° East 564 649 43,000  Level Denver Center
Fri 01:54:03 PM 40.3997 -106.4492 74° East 565 650 43,000  Level Denver Center
Fri 01:55:05 PM 40.4425 -106.2603 73° East 565 650 43,000  Level Denver Center
Fri 01:56:07 PM 40.4897 -106.0394 74° East 559 643 43,000  Level Denver Center
Fri 01:57:09 PM 40.5322 -105.8400 74° East 564 649 43,000  Level Denver Center
Fri 01:58:11 PM 40.5733 -105.6411 75° East 564 649 43,000  Level Denver Center
Fri 01:59:13 PM 40.6158 -105.4411 74° East 568 654 43,000  Level Denver Center
Fri 02:00:16 PM 40.6564 -105.2408 75° East 566 651 43,000  Level Denver Center
Fri 02:01:18 PM 40.7047 -105.0058 75° East 554 638 43,000  Level Denver Center
Fri 02:02:20 PM 40.7447 -104.8050 75° East 561 646 43,000  Level Denver Center
Fri 02:03:22 PM 40.7850 -104.6069 75° East 559 643 43,000  Level Denver Center
Fri 02:04:24 PM 40.8239 -104.4064 76° East 563 648 43,000  Level Denver Center
Fri 02:05:26 PM 40.8636 -104.2072 75° East 562 647 43,000  Level Denver Center
Fri 02:06:28 PM 40.9022 -104.0058 76° East 564 649 43,000  Level Denver Center
Fri 02:07:30 PM 40.9419 -103.8044 75° East 566 651 43,000  Level Denver Center
Fri 02:08:32 PM 40.9872 -103.5644 76° East 561 646 43,000  Level Denver Center
Fri 02:09:34 PM 41.0242 -103.3675 76° East 561 646 43,000  Level Denver Center
Fri 02:10:36 PM 41.0594 -103.1786 76° East 556 640 43,000  Level Denver Center
Fri 02:11:38 PM 41.0925 -102.9719 78° East 554 638 43,000  Level Denver Center
Fri 02:12:40 PM 41.1150 -102.7469 82° East 550 633 43,000  Level Denver Center
Fri 02:13:42 PM 41.1297 -102.5539 84° East 550 633 43,000  Level Denver Center
Fri 02:14:56 PM 41.1458 -102.3286 85° East 549 632 43,000  Level Denver Center
Fri 02:15:59 PM 41.1650 -102.0722 84° East 548 631 43,000  Level Denver Center
Fri 02:17:01 PM 41.1792 -101.8783 84° East 551 634 43,000  Level Denver Center
Fri 02:18:03 PM 41.1953 -101.6519 85° East 551 634 43,000  Level Denver Center
Fri 02:19:05 PM 41.2094 -101.4583 84° East 549 632 43,000  Level Denver Center
Fri 02:20:07 PM 41.2225 -101.2636 85° East 549 632 43,000  Level Denver Center
Fri 02:21:09 PM 41.2364 -101.0383 85° East 545 627 43,000  Level Denver Center
Fri 02:22:11 PM 41.2489 -100.8456 85° East 544 626 43,000  Level Denver Center
Fri 02:23:13 PM 41.2628 -100.6206 85° East 543 625 43,000  Level Denver Center
Fri 02:24:15 PM 41.2756 -100.4289 85° East 540 621 43,000 194 Level Denver Center
Fri 02:25:17 PM 41.2856 -100.2375 86° East 539 620 43,400 435 Climbing Denver Center
Fri 02:26:19 PM 41.2969 -100.0164 86° East 537 618 43,900 484 Climbing Denver Center
Fri 02:27:21 PM 41.3086 -99.8311 85° East 529 609 44,400 484 Climbing Denver Center
Fri 02:28:23 PM 41.3189 -99.6142 86° East 526 605 44,900 290 Climbing Denver Center
Fri 02:29:25 PM 41.3286 -99.4306 86° East 522 601 45,000 48 Climbing Denver Center
Fri 02:30:27 PM 41.3375 -99.2381 86° East 527 606 45,000  Level Denver Center
Fri 02:31:29 PM 41.3475 -99.0408 86° East 529 609 45,000  Level Denver Center
Fri 02:32:31 PM 41.3578 -98.8392 86° East 534 615 45,000  Level Denver Center
Fri 02:33:35 PM 41.3642 -98.6106 88° East 535 616 45,000  Level Minneapolis Center
Fri 02:34:37 PM 41.3753 -98.3944 86° East 541 623 45,000  Level Minneapolis Center
Fri 02:35:39 PM 41.3822 -98.1956 87° East 538 619 45,000  Level Minneapolis Center
Fri 02:36:41 PM 41.3864 -98.0150 88° East 536 617 45,000  Level Minneapolis Center
Fri 02:37:44 PM 41.3939 -97.7794 87° East 532 612 45,000  Level Minneapolis Center
Fri 02:38:46 PM 41.3989 -97.5853 88° East 527 606 45,000  Level Minneapolis Center
Fri 02:39:48 PM 41.4042 -97.3900 88° East 527 606 45,000  Level Minneapolis Center
Fri 02:40:50 PM 41.4092 -97.1972 88° East 524 603 45,000  Level Minneapolis Center
Fri 02:41:52 PM 41.4131 -97.0006 88° East 528 608 45,000  Level Minneapolis Center
Fri 02:42:54 PM 41.4183 -96.8053 88° East 529 609 45,000  Level Minneapolis Center
Fri 02:43:56 PM 41.4219 -96.5719 89° East 525 604 45,000  Level Minneapolis Center
Fri 02:44:58 PM 41.4258 -96.3769 88° East 524 603 45,000  Level Minneapolis Center
Fri 02:46:00 PM 41.4275 -96.1603 89° East 533 613 45,000  Level Minneapolis Center
Fri 02:47:02 PM 41.4300 -95.9658 89° East 527 606 45,000  Level Minneapolis Center
Fri 02:48:05 PM 41.4333 -95.7739 89° East 520 598 45,000  Level Minneapolis Center
Fri 02:49:07 PM 41.4347 -95.5817 89° East 524 603 45,000  Level Minneapolis Center
Fri 02:50:09 PM 41.4361 -95.3897 89° East 521 600 45,000  Level Minneapolis Center
Fri 02:51:11 PM 41.4381 -95.1981 89° East 519 597 45,000  Level Minneapolis Center
Fri 02:52:13 PM 41.4397 -95.0056 89° East 520 598 45,000  Level Minneapolis Center
Fri 02:53:15 PM 41.4400 -94.7758 90° East 518 596 45,000  Level Minneapolis Center
Fri 02:54:17 PM 41.4403 -94.5842 90° East 518 596 45,000  Level Minneapolis Center
Fri 02:55:19 PM 41.4397 -94.3908 90° East 521 600 45,000  Level Minneapolis Center
Fri 02:56:21 PM 41.4389 -94.1850 90° East 526 605 45,000  Level Minneapolis Center
Fri 02:57:23 PM 41.4369 -93.9881 91° East 532 612 45,000  Level Minneapolis Center
Fri 02:58:25 PM 41.4372 -93.7908 90° East 536 617 45,000  Level Minneapolis Center
Fri 02:59:27 PM 41.4400 -93.5917 89° East 539 620 45,000  Level Minneapolis Center
Fri 03:00:29 PM 41.4525 -93.3508 86° East 543 625 45,000  Level Minneapolis Center
Fri 03:01:31 PM 41.4617 -93.1533 86° East 540 621 45,000  Level Minneapolis Center
Fri 03:02:33 PM 41.4692 -92.9592 87° East 533 613 45,000  Level Minneapolis Center
Fri 03:03:35 PM 41.4778 -92.7631 87° East 533 613 45,000  Level Minneapolis Center
Fri 03:04:38 PM 41.4856 -92.5681 87° East 531 611 45,000  Level Minneapolis Center
Fri 03:05:40 PM 41.4936 -92.3706 87° East 533 613 45,000  Level Minneapolis Center
Fri 03:06:42 PM 41.5019 -92.1403 87° East 528 608 45,000  Level Chicago Center
Fri 03:07:44 PM 41.5083 -91.9467 87° East 528 608 45,000  Level Chicago Center
Fri 03:08:46 PM 41.5142 -91.7542 88° East 528 608 45,000  Level Chicago Center
Fri 03:09:48 PM 41.5206 -91.5631 87° East 523 602 45,000  Level Chicago Center
Fri 03:10:50 PM 41.5247 -91.3289 89° East 531 611 45,000  Level Chicago Center
Fri 03:11:52 PM 41.5289 -91.1353 88° East 530 610 45,000  Level Chicago Center
Fri 03:12:54 PM 41.5331 -90.9397 88° East 532 612 45,000  Level Chicago Center
Fri 03:13:57 PM 41.5356 -90.7458 89° East 531 611 45,000  Level Chicago Center
Fri 03:14:59 PM 41.5386 -90.5336 89° East 530 610 45,000  Level Chicago Center
Fri 03:16:01 PM 41.5414 -90.3358 89° East 531 611 45,000  Level Chicago Center
Fri 03:17:03 PM 41.5436 -90.1367 89° East 534 615 45,000  Level Chicago Center
Fri 03:18:05 PM 41.5447 -89.9378 90° East 534 615 45,000  Level Chicago Center
Fri 03:19:07 PM 41.5467 -89.7000 89° East 530 610 45,000  Level Chicago Center
Fri 03:20:09 PM 41.5481 -89.5064 89° East 531 611 45,000  Level Chicago Center
Fri 03:21:11 PM 41.5483 -89.3092 90° East 533 613 45,000  Level Chicago Center
Fri 03:22:13 PM 41.5492 -89.1122 90° East 532 612 45,000  Level Chicago Center
Fri 03:23:15 PM 41.5483 -88.8728 90° East 541 623 45,000  Level Chicago Center
Fri 03:24:18 PM 41.5475 -88.6742 90° East 541 623 45,000  Level Chicago Center
Fri 03:25:20 PM 41.5478 -88.4747 90° East 539 620 45,000  Level Chicago Center
Fri 03:26:22 PM 41.5553 -88.2772 87° East 535 616 45,000  Level Chicago Center
Fri 03:27:24 PM 41.5756 -88.0803 82° East 526 605 45,000  Level Chicago Center
Fri 03:28:26 PM 41.5981 -87.8836 81° East 526 605 45,000  Level Chicago Center
Fri 03:29:28 PM 41.6203 -87.6914 81° East 523 602 45,000  Level Chicago Center
Fri 03:30:30 PM 41.6408 -87.5017 82° East 518 596 45,000  Level Chicago Center
Fri 03:31:32 PM 41.6675 -87.2703 81° East 523 602 45,000  Level Chicago Center
Fri 03:32:34 PM 41.6878 -87.0803 82° East 521 600 45,000  Level Chicago Center
Fri 03:33:36 PM 41.7094 -86.8894 81° East 520 598 45,000  Level Chicago Center
Fri 03:34:39 PM 41.7314 -86.6725 82° East 527 606 45,000  Level Chicago Center
Fri 03:35:41 PM 41.7517 -86.4797 82° East 524 603 45,000  Level Chicago Center
Fri 03:36:43 PM 41.7711 -86.2867 82° East 523 602 45,000  Level Chicago Center
Fri 03:37:45 PM 41.7914 -86.0933 82° East 524 603 45,000  Level Chicago Center
Fri 03:38:47 PM 41.8111 -85.8997 82° East 524 603 45,000  Level Chicago Center
Fri 03:39:49 PM 41.8317 -85.7058 82° East 524 603 45,000  Level Chicago Center
Fri 03:40:51 PM 41.8522 -85.5083 82° East 528 608 45,000  Level Chicago Center
Fri 03:41:53 PM 41.8717 -85.3083 82° East 532 612 45,000  Level Chicago Center
Fri 03:42:55 PM 41.8947 -85.0733 82° East 518 596 45,000  Level Chicago Center
Fri 03:43:57 PM 41.9142 -84.8753 82° East 539 620 45,000  Level Chicago Center
Fri 03:45:00 PM 41.9339 -84.6767 82° East 539 620 45,000  Level Chicago Center
Fri 03:46:02 PM 41.9525 -84.4778 83° East 536 617 45,000  Level Chicago Center
Fri 03:47:04 PM 41.9739 -84.2731 82° East 535 616 45,000  Level Chicago Center
Fri 03:47:19 PM 41.9772 -84.2256 85° East 534 615 45,000  Level Cleveland Center
Fri 03:48:19 PM 41.9936 -84.0281 84° East 534 615 45,000  Level Cleveland Center
Fri 03:49:20 PM 42.0119 -83.8333 83° East 534 615 45,000  Level Cleveland Center
Fri 03:51:19 PM 42.0475 -83.4381 83° East 534 615 45,000  Level Cleveland Center
Fri 03:52:20 PM 42.0583 -83.2428 86° East 535 616 45,000  Level Cleveland Center
Fri 03:53:20 PM 42.0650 -83.0389 87° East 535 616 45,000  Level Cleveland Center
Fri 03:54:19 PM 42.0753 -82.8436 86° East 535 616 45,000  Level Cleveland Center
Fri 03:55:20 PM 42.0853 -82.6481 86° East 535 616 45,000  Level Cleveland Center
Fri 03:56:20 PM 42.0969 -82.4497 85° East 530 610 45,000  Level Cleveland Center
Fri 03:57:19 PM 42.1086 -82.2289 86° East 538 619 45,000  Level Cleveland Center
Fri 03:58:19 PM 42.1133 -82.0331 88° East 532 612 45,000  Level Cleveland Center
Fri 03:59:19 PM 42.1178 -81.8317 88° East 532 612 45,000  Level Cleveland Center
Fri 04:00:19 PM 42.1261 -81.6331 87° East 538 619 45,000  Level Cleveland Center
Fri 04:01:20 PM 42.1339 -81.4317 87° East 533 613 45,000  Level Cleveland Center
Fri 04:02:20 PM 42.1394 -81.2525 88° East 533 613 45,000  Level Cleveland Center
Fri 04:03:19 PM 42.1467 -81.0564 87° East 533 613 45,000  Level Cleveland Center
Fri 04:04:20 PM 42.1494 -80.8578 89° East 528 608 45,000  Level Cleveland Center
Fri 04:05:20 PM 42.1517 -80.6644 89° East 528 608 45,000  Level Cleveland Center
Fri 04:06:19 PM 42.1517 -80.4489 90° East 528 608 45,000  Level Cleveland Center
Fri 04:07:20 PM 42.1533 -80.2500 89° East 528 608 45,000  Level Cleveland Center
Fri 04:08:20 PM 42.1525 -80.0511 90° East 528 608 45,000  Level Cleveland Center
Fri 04:09:19 PM 42.1536 -79.8747 89° East 528 608 45,000  Level Cleveland Center
Fri 04:10:20 PM 42.1525 -79.6786 90° East 523 602 45,000  Level Cleveland Center
Fri 04:11:19 PM 42.1528 -79.4853 90° East 523 602 45,000  Level Cleveland Center
Fri 04:12:19 PM 42.1508 -79.3033 91° East 523 602 45,000  Level Cleveland Center
Fri 04:13:19 PM 42.1500 -79.0681 90° East 528 608 45,000  Level Cleveland Center
Fri 04:14:20 PM 42.1494 -78.8664 90° East 528 608 45,000  Level Cleveland Center
Fri 04:15:20 PM 42.1483 -78.6731 90° East 533 613 45,000  Level Cleveland Center
Fri 04:16:20 PM 42.1450 -78.4772 91° East 533 613 45,000  Level Cleveland Center
Fri 04:17:19 PM 42.1431 -78.2700 91° East 533 613 45,000  Level Cleveland Center
Fri 04:18:19 PM 42.1414 -78.0936 91° East 533 613 45,000  Level Cleveland Center
Fri 04:19:54 PM 42.1331 -77.7817 92° East 523 602 45,000  Level New York Center
Fri 04:20:55 PM 42.1300 -77.5828 91° East 529 609 45,000  Level New York Center
Fri 04:21:54 PM 42.1247 -77.3808 92° East 539 620 45,000  Level New York Center
Fri 04:22:55 PM 42.1211 -77.1819 91° East 539 620 45,000  Level New York Center
Fri 04:23:55 PM 42.1169 -76.9858 92° East 539 620 45,000  Level New York Center
Fri 04:24:53 PM 42.1106 -76.7839 92° East 539 620 45,000  Level New York Center
Fri 04:25:54 PM 42.1058 -76.5850 92° East 539 620 45,000  Level New York Center
Fri 04:26:54 PM 42.1008 -76.3861 92° East 539 620 45,000  Level New York Center
Fri 04:29:27 PM 42.0858 -75.8756 92° East 523 602 45,000  Level Boston Center
Fri 04:30:27 PM 42.0792 -75.6739 92° East 529 609 45,000  Level Boston Center
Fri 04:31:27 PM 42.0722 -75.4719 93° East 551 634 45,000 -1,000 Level Boston Center
Fri 04:32:27 PM 42.0731 -75.2764 90° East 545 627 43,000 -2,750 Descending Boston Center
Fri 04:33:27 PM 42.0886 -75.0617 84° East 529 609 39,500 -3,300 Descending Boston Center
Fri 04:34:27 PM 42.1097 -74.8636 82° East 529 609 36,400 -3,050 Descending Boston Center
Fri 04:35:27 PM 42.1281 -74.6853 82° East 529 609 33,400 -3,150 Descending Boston Center
Fri 04:36:27 PM 42.1464 -74.4842 83° East 536 617 30,100 -2,200 Descending Boston Center
Fri 04:37:27 PM 42.1711 -74.2636 81° East 536 617 29,000 -550 Descending Boston Center
Fri 04:38:27 PM 42.1886 -74.0653 83° East 536 617 29,000  Level Boston Center
Fri 04:39:27 PM 42.2081 -73.8639 83° East 536 617 29,000 -1,000 Level Boston Center
Fri 04:40:27 PM 42.2247 -73.6822 83° East 542 624 27,000 -2,500 Descending Boston Center
Fri 04:41:27 PM 42.2433 -73.4947 82° East 529 609 24,000 -2,150 Descending Boston Center
Fri 04:42:27 PM 42.2533 -73.3039 86° East 478 550 22,700 -1,850 Descending Boston Center
Fri 04:43:27 PM 42.2275 -73.1297 101° East 467 537 20,300 -1,850 Descending Boston Center
Fri 04:44:27 PM 42.1572 -72.9806 122° Southeast 452 520 19,000 -650 Descending Boston Center
Fri 04:45:27 PM 42.0619 -72.8539 135° Southeast 464 534 19,000  Level Boston Center
Fri 04:46:27 PM 41.9686 -72.7222 134° Southeast 470 541 19,000 -250 Level Boston Center
Fri 04:47:27 PM 41.8833 -72.5850 130° Southeast 475 547 18,500 -1,450 Descending Boston Center
Fri 04:48:27 PM 41.8147 -72.4622 127° Southeast 475 547 16,100 -2,500 Descending Boston Center
Fri 04:49:27 PM 41.7314 -72.3178 128° Southeast 463 533 13,500 -2,494 Descending Boston Center
Fri 04:49:56 PM 41.6978 -72.2511 124° Southeast 425 489 12,400 -2,300 Descending Boston Center
Fri 04:50:27 PM 41.6644 -72.1900 126° Southeast 433 498 11,200 -923 Descending Boston Center
Fri 04:51:27 PM 41.6142 -72.0986 126° Southeast 406 467 11,000 -650 Descending Boston Center
Fri 04:52:27 PM 41.5056 -72.0492 161° South 353 406 9,900 -1,400 Descending Boston Center
Fri 04:53:27 PM 41.4244 -72.0967 204° Southwest 308 354 8,200 -1,680 Descending Boston Center
Fri 04:53:42 PM 41.4039 -72.1192 219° Southwest 332 382 7,800 -1,600 Descending Boston Center
Fri 04:54:27 PM 41.3558 -72.1719 220° Southwest 313 360 6,600 -1,029 Descending Boston Center
Fri 04:55:27 PM 41.2956 -72.2550 226° Southwest 318 366 6,000 -350 Descending Boston Center
Fri 04:56:27 PM 41.2375 -72.3408 228° Southwest 323 372 5,900 -700 Descending Boston Center
Fri 04:57:27 PM 41.1833 -72.4208 228° Southwest 312 359 4,600 -1,250 Descending Boston Center
Fri 04:58:27 PM 41.1167 -72.4650 207° Southwest 278 320 3,400 -800 Descending Boston Center
Fri 04:59:27 PM 41.0394 -72.4675 181° South 273 314 3,000 -200 Descending Boston Center
Fri 05:00:27 PM 40.9728 -72.4758 185° South 256 295 3,000 -550 Level Boston Center
Fri 05:01:27 PM 40.9250 -72.5281 220° Southwest 216 249 1,900 -1,000 Descending Boston Center
Fri 05:02:27 PM 40.8853 -72.5800 225° Southwest 222 255 1,000 -850 Descending Boston Center
Fri 05:03:27 PM 40.8561 -72.6131 221° Southwest 185 213 200 -450 Descending Boston Center
Fri 05:04:27 PM 40.8414 -72.6322 225° Southwest 137 158 100 9,400 Descending Boston Center
Fri 05:05:27 PM 40.8122 -72.6678 223° Southwest 137 158 19,000 9,450 Climbing Boston Center
Fri 05:06:27 PM 40.7869 -72.7006 224° Southwest 137 158 19,000  Level Boston Center

Login

Don't have an account? Register now (free) for customized features, flight alerts, and more!